createdAt,value
2019-04-03T00:01:49.019Z,17.50
2019-04-03T00:04:18.958Z,18.07
2019-04-03T00:06:49.107Z,16.67
2019-04-03T00:09:18.941Z,17.10
2019-04-03T00:11:49.163Z,18.07
2019-04-03T00:14:19.052Z,17.20
2019-04-03T00:16:49.022Z,17.98
2019-04-03T00:19:18.676Z,17.60
2019-04-03T00:21:50.632Z,18.50
2019-04-03T00:24:22.595Z,17.80
2019-04-03T00:26:53.110Z,17.93
2019-04-03T00:29:23.970Z,18.03
2019-04-03T00:31:53.981Z,17.17
2019-04-03T00:34:23.986Z,18.13
2019-04-03T00:36:55.083Z,18.00
2019-04-03T00:39:24.971Z,17.93
2019-04-03T00:41:55.119Z,18.53
2019-04-03T00:44:25.187Z,18.27
2019-04-03T00:46:55.728Z,17.97
2019-04-03T00:49:26.453Z,17.90
2019-04-03T00:51:57.512Z,18.03
2019-04-03T00:54:30.554Z,17.87
2019-04-03T00:56:59.345Z,17.37
2019-04-03T00:59:28.983Z,18.37
2019-04-03T01:01:58.891Z,18.67
2019-04-03T01:04:29.101Z,17.63
2019-04-03T01:06:59.322Z,17.87
2019-04-03T01:09:29.805Z,18.03
2019-04-03T01:12:00.846Z,17.87
2019-04-03T01:14:31.629Z,17.97
2019-04-03T01:17:03.770Z,17.63
2019-04-03T01:19:33.179Z,18.60
2019-04-03T01:22:02.895Z,18.50
2019-04-03T01:24:32.598Z,18.67
2019-04-03T01:27:02.322Z,18.17
2019-04-03T01:29:31.983Z,18.67
2019-04-03T01:32:01.635Z,18.47
2019-04-03T01:34:32.330Z,18.07
2019-04-03T01:37:02.384Z,18.60
2019-04-03T01:39:32.055Z,18.03
2019-04-03T01:42:02.033Z,18.13
2019-04-03T01:44:31.912Z,18.00
2019-04-03T01:47:01.582Z,17.90
2019-04-03T01:49:31.373Z,18.20
2019-04-03T01:52:01.496Z,18.47
2019-04-03T01:54:33.051Z,18.27
2019-04-03T01:57:06.008Z,18.73
2019-04-03T01:59:37.590Z,17.93
2019-04-03T02:02:08.533Z,18.47
2019-04-03T02:04:38.850Z,19.70
2019-04-03T02:07:08.931Z,19.63
2019-04-03T02:09:38.633Z,19.90
2019-04-03T02:12:08.545Z,19.43
2019-04-03T02:14:38.234Z,18.77
2019-04-03T02:17:07.937Z,19.13
2019-04-03T02:19:37.939Z,19.47
2019-04-03T02:22:07.847Z,18.93
2019-04-03T02:24:37.796Z,20.33
2019-04-03T02:27:07.463Z,19.07
2019-04-03T02:29:39.284Z,19.57
2019-04-03T02:32:08.515Z,19.67
2019-04-03T02:34:39.494Z,19.07
2019-04-03T02:37:09.231Z,19.63
2019-04-03T02:39:39.054Z,19.93
2019-04-03T02:42:09.845Z,20.77
2019-04-03T02:44:39.953Z,21.13
2019-04-03T02:47:10.429Z,22.03
2019-04-03T02:49:42.897Z,21.20
2019-04-03T02:52:12.257Z,20.63
2019-04-03T02:54:42.414Z,21.60
2019-04-03T02:57:12.204Z,22.27
2019-04-03T02:59:42.025Z,22.00
2019-04-03T03:02:13.479Z,22.23
2019-04-03T03:04:43.426Z,22.03
2019-04-03T03:07:13.299Z,22.00
2019-04-03T03:09:45.556Z,22.83
2019-04-03T03:12:14.911Z,21.77
2019-04-03T03:14:45.052Z,22.17
2019-04-03T03:17:16.602Z,23.33
2019-04-03T03:19:48.183Z,22.47
2019-04-03T03:22:19.072Z,22.93
2019-04-03T03:24:49.138Z,23.03
2019-04-03T03:27:19.231Z,23.80
2019-04-03T03:29:49.040Z,22.97
2019-04-03T03:32:28.920Z,23.57
2019-04-03T03:35:02.067Z,22.70
2019-04-03T03:37:23.801Z,23.00
2019-04-03T03:39:54.997Z,22.83
2019-04-03T03:42:25.047Z,23.23
2019-04-03T03:44:55.912Z,23.30
2019-04-03T03:47:26.038Z,23.17
2019-04-03T03:49:56.210Z,23.37
2019-04-03T03:52:26.484Z,23.57
2019-04-03T03:54:56.360Z,22.77
2019-04-03T03:57:27.225Z,22.93
2019-04-03T03:59:57.185Z,22.93
2019-04-03T04:02:27.211Z,22.50
2019-04-03T04:04:57.348Z,27.00
2019-04-03T04:07:27.131Z,22.33
2019-04-03T04:09:57.327Z,22.03
2019-04-03T04:12:27.614Z,21.70
2019-04-03T04:14:57.982Z,22.77
2019-04-03T04:17:28.275Z,22.37
2019-04-03T04:20:03.051Z,23.60
2019-04-03T04:22:30.294Z,23.13
2019-04-03T04:25:04.007Z,22.77
2019-04-03T04:27:37.859Z,22.70
2019-04-03T04:30:06.178Z,22.53
2019-04-03T04:32:35.943Z,22.97
2019-04-03T04:35:05.935Z,23.57
2019-04-03T04:37:35.574Z,23.17
2019-04-03T04:40:05.722Z,23.03
2019-04-03T04:42:35.961Z,21.97
2019-04-03T04:45:06.252Z,22.50
2019-04-03T04:47:35.967Z,23.50
2019-04-03T04:50:06.415Z,22.97
2019-04-03T04:52:36.754Z,22.77
2019-04-03T04:55:07.415Z,23.03
2019-04-03T04:57:40.248Z,22.20
2019-04-03T05:00:09.896Z,22.90
2019-04-03T05:02:39.536Z,23.40
2019-04-03T05:05:09.638Z,22.83
2019-04-03T05:07:39.371Z,22.70
2019-04-03T05:10:09.511Z,22.13
2019-04-03T05:12:42.300Z,23.20
2019-04-03T05:15:10.891Z,22.70
2019-04-03T05:17:40.718Z,22.37
2019-04-03T05:20:12.130Z,21.87
2019-04-03T05:22:41.848Z,22.80
2019-04-03T05:25:11.816Z,22.13
2019-04-03T05:27:41.460Z,22.43
2019-04-03T05:30:11.659Z,21.43
2019-04-03T05:32:41.638Z,21.97
2019-04-03T05:35:14.594Z,21.30
2019-04-03T05:37:44.374Z,19.97
2019-04-03T05:40:14.014Z,20.43
2019-04-03T05:42:44.046Z,19.60
2019-04-03T05:45:14.039Z,20.53
2019-04-03T05:47:44.784Z,20.53
2019-04-03T05:50:14.675Z,20.30
2019-04-03T05:52:44.339Z,21.10
2019-04-03T05:55:14.464Z,20.47
2019-04-03T05:57:45.779Z,19.93
2019-04-03T06:00:16.410Z,19.40
2019-04-03T06:02:46.267Z,20.23
2019-04-03T06:05:19.133Z,19.40
2019-04-03T06:07:49.655Z,20.43
2019-04-03T06:10:19.344Z,19.77
2019-04-03T06:12:49.371Z,20.07
2019-04-03T06:15:21.704Z,20.03
2019-04-03T06:17:51.278Z,20.47
2019-04-03T06:20:22.616Z,19.77
2019-04-03T06:22:52.326Z,19.10
2019-04-03T06:25:23.517Z,18.83
2019-04-03T06:27:53.264Z,20.13
2019-04-03T06:30:24.916Z,18.47
2019-04-03T06:32:55.422Z,20.10
2019-04-03T06:35:26.396Z,20.03
2019-04-03T06:37:56.331Z,19.23
2019-04-03T06:40:25.973Z,19.80
2019-04-03T06:42:55.627Z,19.23
2019-04-03T06:45:26.457Z,18.80
2019-04-03T06:47:57.021Z,17.33
2019-04-03T06:50:26.871Z,18.63
2019-04-03T06:52:56.590Z,18.67
2019-04-03T06:55:26.232Z,18.43
2019-04-03T06:57:55.954Z,18.33
2019-04-03T07:00:25.881Z,18.83
2019-04-03T07:02:55.641Z,18.93
2019-04-03T07:05:27.549Z,18.67
2019-04-03T07:07:57.604Z,18.13
2019-04-03T07:10:28.659Z,17.80
2019-04-03T07:12:59.960Z,18.03
2019-04-03T07:15:30.497Z,18.03
2019-04-03T07:18:01.869Z,18.43
2019-04-03T07:20:32.951Z,19.20
2019-04-03T07:23:03.146Z,19.10
2019-04-03T07:25:33.857Z,18.90
2019-04-03T07:28:04.255Z,17.60
2019-04-03T07:30:34.006Z,18.30
2019-04-03T07:33:05.787Z,19.00
2019-04-03T07:35:35.764Z,18.23
2019-04-03T07:38:05.960Z,17.47
2019-04-03T07:40:35.711Z,18.00
2019-04-03T07:43:05.423Z,18.00
2019-04-03T07:45:36.410Z,17.67
2019-04-03T07:48:06.985Z,17.77
2019-04-03T07:50:37.242Z,17.13
2019-04-03T07:53:07.029Z,17.33
2019-04-03T07:55:37.117Z,17.13
2019-04-03T07:58:07.303Z,17.50
2019-04-03T08:00:38.514Z,17.80
2019-04-03T08:03:08.504Z,17.57
2019-04-03T08:05:38.155Z,17.87
2019-04-03T08:08:07.875Z,18.23
2019-04-03T08:10:37.925Z,18.10
2019-04-03T08:13:07.871Z,17.20
2019-04-03T08:15:37.607Z,17.90
2019-04-03T08:18:07.396Z,17.50
2019-04-03T08:20:37.125Z,17.47
2019-04-03T08:23:06.870Z,18.13
2019-04-03T08:25:37.887Z,17.80
2019-04-03T08:28:07.599Z,17.13
2019-04-03T08:30:39.643Z,17.83
2019-04-03T08:33:15.837Z,19.83
2019-04-03T08:35:41.033Z,20.27
2019-04-03T08:38:12.403Z,20.43
2019-04-03T08:40:42.110Z,20.03
2019-04-03T08:43:11.896Z,20.60
2019-04-03T08:45:41.623Z,19.67
2019-04-03T08:48:11.587Z,20.03
2019-04-03T08:50:41.348Z,20.70
2019-04-03T08:53:12.098Z,21.33
2019-04-03T08:55:41.800Z,20.03
2019-04-03T08:58:11.468Z,21.43
2019-04-03T09:00:41.150Z,21.03
2019-04-03T09:03:13.932Z,21.53
2019-04-03T09:05:42.335Z,21.47
2019-04-03T09:08:12.322Z,21.73
2019-04-03T09:10:42.509Z,22.00
2019-04-03T09:13:17.328Z,22.40
2019-04-03T09:15:44.133Z,23.03
2019-04-03T09:18:13.997Z,24.07
2019-04-03T09:20:44.230Z,24.77
2019-04-03T09:23:14.255Z,25.17
2019-04-03T09:25:43.979Z,25.77
2019-04-03T09:28:13.800Z,26.57
2019-04-03T09:30:46.832Z,26.93
2019-04-03T09:33:15.568Z,26.43
2019-04-03T09:35:45.354Z,26.57
2019-04-03T09:38:15.220Z,27.20
2019-04-03T09:40:47.226Z,26.83
2019-04-03T09:43:16.486Z,27.87
2019-04-03T09:45:46.140Z,27.57
2019-04-03T09:48:16.426Z,27.47
2019-04-03T09:50:47.240Z,27.93
2019-04-03T09:53:17.111Z,27.20
2019-04-03T09:55:46.935Z,27.47
2019-04-03T09:58:16.933Z,27.10
2019-04-03T10:00:46.833Z,28.33
2019-04-03T10:03:16.479Z,27.73
2019-04-03T10:05:46.444Z,28.40
2019-04-03T10:08:16.115Z,29.00
2019-04-03T10:10:47.084Z,28.17
2019-04-03T10:13:17.187Z,27.43
2019-04-03T10:15:47.039Z,28.03
2019-04-03T10:18:16.779Z,28.10
2019-04-03T10:20:48.802Z,29.67
2019-04-03T10:23:18.042Z,29.83
2019-04-03T10:25:48.043Z,29.77
2019-04-03T10:28:17.692Z,28.57
2019-04-03T10:30:47.411Z,28.57
2019-04-03T10:33:17.107Z,28.53
2019-04-03T10:35:47.431Z,27.37
2019-04-03T10:38:18.291Z,25.43
2019-04-03T10:40:49.012Z,26.87
2019-04-03T10:43:19.068Z,26.60
2019-04-03T10:45:48.831Z,27.43
2019-04-03T10:48:18.797Z,26.07
2019-04-03T10:50:48.867Z,27.00
2019-04-03T10:53:20.034Z,26.37
2019-04-03T10:55:50.154Z,26.63
2019-04-03T10:58:21.245Z,25.87
2019-04-03T11:00:51.160Z,27.37
2019-04-03T11:03:20.863Z,26.37
2019-04-03T11:05:50.639Z,27.00
2019-04-03T11:08:20.342Z,27.43
2019-04-03T11:10:50.095Z,27.97
2019-04-03T11:13:20.124Z,27.67
2019-04-03T11:15:50.406Z,27.50
2019-04-03T11:18:21.112Z,28.13
2019-04-03T11:20:51.450Z,27.63
2019-04-03T11:23:35.743Z,26.70
2019-04-03T11:25:52.708Z,25.47
2019-04-03T11:28:23.887Z,27.87
2019-04-03T11:30:55.843Z,26.13
2019-04-03T11:33:25.689Z,27.33
2019-04-03T11:35:55.512Z,27.33
2019-04-03T11:38:28.232Z,27.57
2019-04-03T11:40:57.375Z,26.57
2019-04-03T11:43:27.514Z,26.40
2019-04-03T11:45:58.116Z,27.17
2019-04-03T11:48:27.947Z,27.13
2019-04-03T11:50:58.100Z,26.00
2019-04-03T11:53:28.185Z,26.83
2019-04-03T11:55:57.959Z,26.67
2019-04-03T11:58:27.663Z,27.13
2019-04-03T12:00:57.516Z,29.50
2019-04-03T12:03:27.521Z,28.77
2019-04-03T12:05:57.357Z,30.13
2019-04-03T12:08:28.174Z,28.27
2019-04-03T12:10:58.982Z,26.77
2019-04-03T12:13:28.619Z,26.70
2019-04-03T12:15:58.859Z,24.63
2019-04-03T12:18:28.731Z,25.93
2019-04-03T12:20:58.714Z,26.93
2019-04-03T12:23:28.367Z,27.23
2019-04-03T12:25:58.112Z,25.60
2019-04-03T12:28:27.911Z,26.57
2019-04-03T12:30:57.611Z,26.07
2019-04-03T12:33:27.559Z,27.60
2019-04-03T12:35:57.743Z,30.10
2019-04-03T12:38:27.458Z,28.70
2019-04-03T12:40:57.123Z,27.73
2019-04-03T12:43:26.862Z,28.70
2019-04-03T12:45:59.109Z,28.57
2019-04-03T12:48:28.487Z,27.93
2019-04-03T12:51:00.166Z,29.17
2019-04-03T12:53:31.273Z,27.43
2019-04-03T12:56:01.033Z,26.83
2019-04-03T12:58:31.097Z,28.40
2019-04-03T13:01:01.378Z,28.60
2019-04-03T13:03:32.118Z,28.10
2019-04-03T13:06:01.869Z,28.17
2019-04-03T13:08:31.666Z,29.10
2019-04-03T13:11:01.686Z,28.90
2019-04-03T13:13:31.467Z,27.87
2019-04-03T13:16:01.548Z,28.70
2019-04-03T13:18:31.343Z,30.67
2019-04-03T13:21:01.176Z,29.37
2019-04-03T13:23:31.294Z,28.23
2019-04-03T13:26:02.050Z,28.90
2019-04-03T13:28:33.467Z,27.97
2019-04-03T13:31:03.600Z,27.87
2019-04-03T13:33:33.650Z,29.07
2019-04-03T13:36:03.458Z,28.27
2019-04-03T13:38:33.679Z,28.33
2019-04-03T13:41:05.674Z,28.13
2019-04-03T13:43:35.754Z,26.83
2019-04-03T13:46:05.844Z,27.43
2019-04-03T13:48:36.208Z,26.27
2019-04-03T13:51:06.272Z,26.53
2019-04-03T13:53:37.046Z,27.13
2019-04-03T13:56:10.254Z,26.23
2019-04-03T13:58:38.401Z,25.53
2019-04-03T14:01:09.528Z,25.83
2019-04-03T14:03:39.802Z,25.30
2019-04-03T14:06:09.623Z,25.50
2019-04-03T14:08:39.330Z,27.00
2019-04-03T14:11:09.656Z,25.00
2019-04-03T14:13:42.609Z,25.07
2019-04-03T14:16:20.282Z,23.77
2019-04-03T14:18:42.377Z,24.57
2019-04-03T14:21:12.866Z,23.47
2019-04-03T14:23:44.235Z,26.23
2019-04-03T14:26:14.722Z,25.27
2019-04-03T14:28:45.347Z,25.23
2019-04-03T14:31:17.066Z,24.70
2019-04-03T14:33:47.161Z,23.57
2019-04-03T14:36:19.247Z,22.00
2019-04-03T14:38:49.096Z,21.57
2019-04-03T14:41:19.322Z,20.33
2019-04-03T14:43:49.930Z,20.63
2019-04-03T14:46:19.620Z,21.43
2019-04-03T14:48:49.579Z,22.00
2019-04-03T14:51:19.454Z,22.37
2019-04-03T14:53:51.510Z,33.70
2019-04-03T14:56:20.735Z,23.57
2019-04-03T14:58:50.519Z,23.10
2019-04-03T15:01:20.903Z,22.27
2019-04-03T15:03:50.958Z,22.50
2019-04-03T15:06:20.914Z,22.33
2019-04-03T15:08:53.875Z,22.20
2019-04-03T15:11:22.527Z,21.50
2019-04-03T15:13:52.163Z,19.03
2019-04-03T15:16:22.120Z,17.90
2019-04-03T15:18:51.870Z,18.13
2019-04-03T15:21:23.746Z,19.50
2019-04-03T15:23:53.014Z,19.20
2019-04-03T15:26:23.068Z,19.67
2019-04-03T15:28:52.795Z,22.70
2019-04-03T15:31:24.040Z,19.90
2019-04-03T15:33:55.782Z,17.47
2019-04-03T15:36:26.222Z,17.20
2019-04-03T15:38:58.656Z,17.73
2019-04-03T15:41:31.119Z,17.23
2019-04-03T15:44:00.551Z,16.60
2019-04-03T15:46:33.993Z,15.83
2019-04-03T15:49:02.107Z,16.50
2019-04-03T15:51:32.127Z,16.03
2019-04-03T15:54:02.227Z,18.17
2019-04-03T15:56:32.249Z,16.27
2019-04-03T15:59:02.018Z,14.83
2019-04-03T16:01:32.290Z,14.30
2019-04-03T16:04:02.097Z,15.10
2019-04-03T16:06:34.785Z,13.10
2019-04-03T16:09:05.244Z,12.47
2019-04-03T16:11:35.036Z,12.73
2019-04-03T16:14:05.136Z,12.83
2019-04-03T16:16:34.904Z,13.10
2019-04-03T16:19:04.796Z,14.73
2019-04-03T16:21:46.945Z,14.13
2019-04-03T16:24:16.832Z,14.70
2019-04-03T16:26:46.540Z,15.83
2019-04-03T16:29:16.564Z,16.53
2019-04-03T16:31:46.623Z,15.80
2019-04-03T16:34:16.415Z,16.17
2019-04-03T16:36:49.167Z,15.73
2019-04-03T16:39:18.510Z,17.57
2019-04-03T16:41:48.483Z,16.90
2019-04-03T16:44:18.344Z,16.07
2019-04-03T16:46:48.106Z,17.00
2019-04-03T16:49:17.754Z,15.97
2019-04-03T16:51:47.426Z,16.40
2019-04-03T16:54:17.071Z,17.30
2019-04-03T16:56:48.471Z,17.83
2019-04-03T16:59:18.160Z,17.33
2019-04-03T17:01:48.535Z,17.57
2019-04-03T17:04:26.069Z,18.37
2019-04-03T17:06:49.852Z,18.40
2019-04-03T17:09:19.631Z,18.93
2019-04-03T17:11:50.196Z,19.73
2019-04-03T17:14:23.300Z,20.10
2019-04-03T17:16:54.106Z,20.35
2019-04-03T17:19:24.707Z,20.27
2019-04-03T17:21:56.027Z,21.50
2019-04-03T17:24:43.637Z,23.07
2019-04-03T17:27:09.298Z,23.63
2019-04-03T17:29:40.444Z,25.00
2019-04-03T17:32:11.622Z,26.03
2019-04-03T17:34:43.113Z,25.37
2019-04-03T17:37:13.738Z,26.63
2019-04-03T17:39:43.835Z,26.57
2019-04-03T17:42:13.835Z,27.97
2019-04-03T17:44:44.820Z,29.23
2019-04-03T17:47:15.442Z,29.00
2019-04-03T17:49:45.271Z,30.73
2019-04-03T17:52:15.268Z,29.87
2019-04-03T17:54:45.239Z,30.60
2019-04-03T17:57:17.417Z,30.57
2019-04-03T17:59:48.846Z,32.20
2019-04-03T18:02:17.949Z,29.93
2019-04-03T18:04:48.930Z,28.90
2019-04-03T18:07:19.413Z,29.90
2019-04-03T18:09:49.142Z,31.53
2019-04-03T18:12:21.778Z,30.63
2019-04-03T18:14:50.265Z,32.67
2019-04-03T18:17:19.912Z,32.73
2019-04-03T18:19:49.551Z,30.83
2019-04-03T18:22:20.742Z,30.97
2019-04-03T18:24:51.840Z,31.57
2019-04-03T18:27:22.155Z,29.37
2019-04-03T18:29:51.795Z,31.47
2019-04-03T18:32:21.442Z,30.53
2019-04-03T18:34:53.050Z,29.97
2019-04-03T18:37:22.463Z,29.60
2019-04-03T18:39:52.482Z,30.17
2019-04-03T18:42:22.391Z,30.47
2019-04-03T18:44:52.048Z,29.90
2019-04-03T18:47:21.702Z,29.67
2019-04-03T18:49:51.400Z,30.20
2019-04-03T18:52:21.171Z,28.10
2019-04-03T18:54:50.871Z,28.07
2019-04-03T18:57:20.662Z,29.77
2019-04-03T18:59:50.337Z,30.07
2019-04-03T19:02:20.079Z,31.17
2019-04-03T19:05:01.100Z,42.43
2019-04-03T19:07:21.503Z,33.77
2019-04-03T19:09:51.793Z,31.33
2019-04-03T19:12:34.657Z,32.77
2019-04-03T19:14:53.579Z,32.00
2019-04-03T19:17:24.809Z,33.53
2019-04-03T19:20:09.450Z,30.20
2019-04-03T19:22:26.353Z,31.53
2019-04-03T19:24:58.751Z,31.57
2019-04-03T19:27:28.638Z,32.50
2019-04-03T19:29:58.365Z,30.50
2019-04-03T19:32:28.359Z,30.80
2019-04-03T19:34:58.432Z,30.67
2019-04-03T19:37:28.205Z,29.87
2019-04-03T19:39:57.919Z,30.83
2019-04-03T19:42:27.570Z,31.83
2019-04-03T19:44:57.210Z,32.43
2019-04-03T19:47:26.854Z,33.03
2019-04-03T19:49:59.972Z,32.43
2019-04-03T19:52:27.847Z,32.37
2019-04-03T19:54:58.879Z,33.60
2019-04-03T19:57:28.531Z,31.27
2019-04-03T19:59:58.172Z,35.33
2019-04-03T20:02:27.827Z,34.43
2019-04-03T20:04:57.745Z,33.97
2019-04-03T20:07:27.398Z,36.73
2019-04-03T20:09:57.035Z,34.17
2019-04-03T20:12:26.688Z,33.97
2019-04-03T20:14:58.359Z,32.53
2019-04-03T20:17:27.756Z,38.38
2019-04-03T20:19:58.402Z,31.93
2019-04-03T20:22:28.121Z,34.10
2019-04-03T20:25:00.132Z,34.20
2019-04-03T20:27:29.546Z,33.27
2019-04-03T20:30:00.885Z,31.27
2019-04-03T20:32:31.027Z,32.13
2019-04-03T20:35:00.743Z,31.27
2019-04-03T20:37:30.404Z,31.50
2019-04-03T20:40:00.610Z,33.70
2019-04-03T20:42:30.262Z,38.33
2019-04-03T20:44:59.920Z,44.50
2019-04-03T20:47:29.812Z,39.63
2019-04-03T20:49:59.469Z,37.53
2019-04-03T20:52:29.174Z,38.57
2019-04-03T20:54:59.084Z,38.47
2019-04-03T20:57:28.848Z,39.20
2019-04-03T21:00:02.851Z,41.20
2019-04-03T21:02:30.019Z,39.63
2019-04-03T21:04:59.714Z,40.33
2019-04-03T21:07:29.427Z,40.07
2019-04-03T21:10:01.010Z,41.40
2019-04-03T21:12:31.056Z,40.40
2019-04-03T21:15:08.188Z,39.60
2019-04-03T21:17:32.271Z,39.57
2019-04-03T21:20:02.581Z,41.43
2019-04-03T21:22:32.260Z,41.87
2019-04-03T21:25:04.903Z,42.23
2019-04-03T21:27:33.970Z,41.90
2019-04-03T21:30:03.914Z,43.27
2019-04-03T21:32:33.619Z,45.00
2019-04-03T21:35:04.319Z,44.67
2019-04-03T21:37:34.266Z,43.37
2019-04-03T21:40:05.298Z,44.23
2019-04-03T21:42:35.326Z,44.27
2019-04-03T21:45:07.565Z,45.70
2019-04-03T21:47:36.796Z,49.07
2019-04-03T21:50:06.932Z,51.33
2019-04-03T21:52:36.711Z,46.33
2019-04-03T21:55:07.143Z,46.87
2019-04-03T21:57:38.666Z,45.47
2019-04-03T22:00:13.079Z,44.60
2019-04-03T22:02:44.986Z,46.97
2019-04-03T22:05:14.393Z,43.17
2019-04-03T22:07:44.114Z,44.43
2019-04-03T22:10:15.174Z,45.70
2019-04-03T22:12:44.964Z,46.23
2019-04-03T22:15:14.716Z,46.23
2019-04-03T22:17:44.675Z,46.53
2019-04-03T22:20:14.450Z,47.17
2019-04-03T22:22:44.347Z,48.23
2019-04-03T22:25:14.236Z,45.93
2019-04-03T22:27:43.876Z,48.83
2019-04-03T22:30:13.665Z,50.53
2019-04-03T22:32:43.342Z,49.07
2019-04-03T22:35:13.911Z,49.63
2019-04-03T22:37:43.591Z,48.43
2019-04-03T22:40:14.514Z,47.33
2019-04-03T22:42:45.527Z,45.77
2019-04-03T22:45:16.024Z,46.70
2019-04-03T22:47:47.584Z,47.17
2019-04-03T22:50:16.927Z,48.17
2019-04-03T22:52:46.665Z,48.13
2019-04-03T22:55:16.362Z,48.27
2019-04-03T22:57:45.978Z,48.70
2019-04-03T23:00:16.256Z,49.57
2019-04-03T23:02:45.892Z,48.77
2019-04-03T23:05:17.175Z,49.13
2019-04-03T23:07:47.111Z,49.60
2019-04-03T23:10:16.752Z,49.47
2019-04-03T23:12:46.466Z,49.70
2019-04-03T23:15:16.098Z,49.73
2019-04-03T23:17:46.044Z,49.53
2019-04-03T23:20:16.130Z,48.43
2019-04-03T23:22:45.783Z,49.30
2019-04-03T23:25:15.666Z,48.73
2019-04-03T23:27:45.606Z,47.70
2019-04-03T23:30:15.634Z,50.30
2019-04-03T23:32:46.158Z,48.63
2019-04-03T23:35:20.370Z,48.37
2019-04-03T23:37:48.835Z,49.13
2019-04-03T23:40:19.523Z,47.37
2019-04-03T23:42:49.171Z,44.80
2019-04-03T23:45:19.872Z,45.20
2019-04-03T23:47:49.583Z,45.70
2019-04-03T23:50:20.001Z,45.50
2019-04-03T23:52:50.898Z,46.13
2019-04-03T23:55:20.834Z,46.90
2019-04-03T23:57:50.624Z,45.97
